createdAt,value
2022-08-02T00:01:45.785Z,99654.72
2022-08-02T00:04:28.156Z,99661.69
2022-08-02T00:07:01.353Z,99654.09
2022-08-02T00:09:29.214Z,99656.13
2022-08-02T00:11:57.599Z,99650.78
2022-08-02T00:14:43.488Z,99645.94
2022-08-02T00:17:21.131Z,99645.75
2022-08-02T00:19:53.665Z,99650.34
2022-08-02T00:22:25.218Z,99644.88
2022-08-02T00:25:01.181Z,99640.78
2022-08-02T00:27:31.644Z,99645.63
2022-08-02T00:30:01.510Z,99647.66
2022-08-02T00:32:32.685Z,99651.31
2022-08-02T00:35:14.550Z,99650.75
2022-08-02T00:37:45.282Z,99647.09
2022-08-02T00:40:26.474Z,99648.84
2022-08-02T00:43:11.548Z,99651.56
2022-08-02T00:46:02.341Z,99653.59
2022-08-02T00:48:32.350Z,99651.94
2022-08-02T00:51:05.977Z,99654.50
2022-08-02T00:53:42.835Z,99654.78
2022-08-02T00:56:13.491Z,99662.75
2022-08-02T00:58:49.625Z,99654.25
2022-08-02T01:01:20.221Z,99652.13
2022-08-02T01:03:59.181Z,99661.41
2022-08-02T01:06:30.358Z,99667.91
2022-08-02T01:09:08.328Z,99656.16
2022-08-02T01:11:51.761Z,99666.06
2022-08-02T01:14:33.860Z,99664.66
2022-08-02T01:17:12.470Z,99660.56
2022-08-02T01:20:15.163Z,99665.66
2022-08-02T01:23:25.937Z,99677.59
2022-08-02T01:26:37.673Z,99667.13
2022-08-02T01:29:19.242Z,99673.38
2022-08-02T01:32:08.927Z,99674.78
2022-08-02T01:34:47.617Z,99674.91
2022-08-02T01:37:31.285Z,99677.72
2022-08-02T01:40:10.502Z,99679.84
2022-08-02T01:42:53.940Z,99673.00
2022-08-02T01:45:39.516Z,99688.91
2022-08-02T01:48:17.869Z,99686.75
2022-08-02T01:50:53.562Z,99687.19
2022-08-02T01:53:26.574Z,99687.03
2022-08-02T01:55:59.784Z,99693.94
2022-08-02T01:58:38.063Z,99697.56
2022-08-02T02:01:18.656Z,99693.75
2022-08-02T02:03:50.338Z,99687.94
2022-08-02T02:06:28.140Z,99699.13
2022-08-02T02:09:02.665Z,99699.38
2022-08-02T02:12:06.295Z,99703.97
2022-08-02T02:14:26.356Z,99701.69
2022-08-02T02:17:03.980Z,99705.03
2022-08-02T02:19:52.403Z,99703.50
2022-08-02T02:22:24.143Z,99693.91
2022-08-02T02:24:55.823Z,99698.13
2022-08-02T02:27:27.499Z,99692.81
2022-08-02T02:29:59.974Z,99693.78
2022-08-02T02:32:32.143Z,99694.75
2022-08-02T02:35:11.319Z,99686.97
2022-08-02T02:37:46.162Z,99688.69
2022-08-02T02:40:20.625Z,99684.31
2022-08-02T02:42:52.386Z,99677.88
2022-08-02T02:45:25.343Z,99670.78
2022-08-02T02:48:06.441Z,99667.19
2022-08-02T02:50:37.490Z,99662.44
2022-08-02T02:53:10.448Z,99655.44
2022-08-02T02:55:41.631Z,99655.44
2022-08-02T02:58:33.548Z,99656.69
2022-08-02T03:01:02.678Z,99655.50
2022-08-02T03:03:38.601Z,99655.25
2022-08-02T03:06:19.921Z,99661.97
2022-08-02T03:08:53.793Z,99669.38
2022-08-02T03:11:31.592Z,99667.03
2022-08-02T03:14:11.265Z,99663.22
2022-08-02T03:16:56.772Z,99662.03
2022-08-02T03:19:33.297Z,99666.31
2022-08-02T03:22:08.185Z,99671.28
2022-08-02T03:24:39.570Z,99670.91
2022-08-02T03:27:07.894Z,99671.91
2022-08-02T03:29:44.935Z,99679.53
2022-08-02T03:32:13.205Z,99669.72
2022-08-02T03:34:52.637Z,99679.41
2022-08-02T03:37:23.286Z,99676.81
2022-08-02T03:39:59.586Z,99682.47
2022-08-02T03:42:32.360Z,99684.94
2022-08-02T03:45:15.555Z,99688.13
2022-08-02T03:47:45.456Z,99692.19
2022-08-02T03:50:23.997Z,99693.38
2022-08-02T03:53:00.030Z,99697.16
2022-08-02T03:55:31.047Z,99702.09
2022-08-02T03:58:02.081Z,99697.03
2022-08-02T04:00:29.891Z,99709.97
2022-08-02T04:03:00.608Z,99713.44
2022-08-02T04:05:38.140Z,99714.94
2022-08-02T04:08:38.079Z,99714.69
2022-08-02T04:11:08.032Z,99720.00
2022-08-02T04:13:41.144Z,99727.56
2022-08-02T04:16:21.563Z,99730.19
2022-08-02T04:18:58.101Z,99736.09
2022-08-02T04:21:48.624Z,99730.66
2022-08-02T04:24:27.955Z,99730.53
2022-08-02T04:27:19.751Z,99737.88
2022-08-02T04:30:06.472Z,99741.88
2022-08-02T04:32:39.321Z,99739.72
2022-08-02T04:35:20.754Z,99741.59
2022-08-02T04:38:08.471Z,99736.75
2022-08-02T04:40:55.666Z,99728.34
2022-08-02T04:43:27.513Z,99731.44
2022-08-02T04:46:10.134Z,99729.91
2022-08-02T04:48:42.567Z,99722.41
2022-08-02T04:51:16.150Z,99736.69
2022-08-02T04:54:10.596Z,99733.47
2022-08-02T04:56:42.141Z,99742.16
2022-08-02T04:59:16.496Z,99746.53
2022-08-02T05:01:50.305Z,99746.06
2022-08-02T05:04:19.361Z,99745.50
2022-08-02T05:06:51.294Z,99746.25
2022-08-02T05:09:35.337Z,99745.78
2022-08-02T05:12:06.877Z,99743.97
2022-08-02T05:14:38.471Z,99735.06
2022-08-02T05:17:12.128Z,99745.22
2022-08-02T05:19:47.516Z,99750.06
2022-08-02T05:22:18.249Z,99736.50
2022-08-02T05:24:53.004Z,99743.34
2022-08-02T05:27:25.669Z,99747.56
2022-08-02T05:29:57.029Z,99742.91
2022-08-02T05:32:52.908Z,99744.53
2022-08-02T05:35:25.612Z,99735.38
2022-08-02T05:38:00.626Z,99751.78
2022-08-02T05:40:38.140Z,99753.75
2022-08-02T05:43:27.937Z,99756.25
2022-08-02T05:46:03.888Z,99750.38
2022-08-02T05:48:39.700Z,99745.94
2022-08-02T05:51:24.384Z,99765.53
2022-08-02T05:54:12.610Z,99757.72
2022-08-02T05:57:01.325Z,99755.72
2022-08-02T05:59:37.533Z,99764.88
2022-08-02T06:02:30.688Z,99767.53
2022-08-02T06:05:09.208Z,99775.44
2022-08-02T06:07:47.928Z,99774.22
2022-08-02T06:10:29.006Z,99782.09
2022-08-02T06:13:15.292Z,99790.06
2022-08-02T06:15:53.362Z,99796.41
2022-08-02T06:18:28.839Z,99782.78
2022-08-02T06:22:31.691Z,99780.88
2022-08-02T06:24:17.940Z,99777.63
2022-08-02T06:26:53.042Z,99784.50
2022-08-02T06:29:35.686Z,99761.94
2022-08-02T06:32:08.711Z,99765.13
2022-08-02T06:34:47.786Z,99761.88
2022-08-02T06:37:43.525Z,99775.94
2022-08-02T06:40:27.568Z,99772.00
2022-08-02T06:43:27.910Z,99776.97
2022-08-02T06:46:34.570Z,99770.06
2022-08-02T06:49:02.600Z,99772.22
2022-08-02T06:51:48.201Z,99774.84
2022-08-02T06:54:27.457Z,99780.00
2022-08-02T06:57:04.540Z,99777.84
2022-08-02T06:59:49.579Z,99777.63
2022-08-02T07:02:21.255Z,99776.72
2022-08-02T07:05:04.214Z,99770.34
2022-08-02T07:07:36.931Z,99765.94
2022-08-02T07:10:08.390Z,99770.13
2022-08-02T07:12:36.721Z,99770.19
2022-08-02T07:15:26.100Z,99765.91
2022-08-02T07:17:55.537Z,99776.94
2022-08-02T07:20:58.077Z,99777.78
2022-08-02T07:23:32.133Z,99784.75
2022-08-02T07:26:07.114Z,99790.81
2022-08-02T07:28:39.873Z,99784.03
2022-08-02T07:31:08.900Z,99788.34
2022-08-02T07:33:43.328Z,99788.25
2022-08-02T07:36:25.676Z,99783.44
2022-08-02T07:38:59.330Z,99785.63
2022-08-02T07:41:28.594Z,99789.19
2022-08-02T07:44:02.090Z,99782.06
2022-08-02T07:46:37.058Z,99787.25
2022-08-02T07:49:07.273Z,99786.66
2022-08-02T07:51:46.683Z,99796.00
2022-08-02T07:54:17.465Z,99799.66
2022-08-02T07:56:48.649Z,99793.00
2022-08-02T07:59:30.253Z,99790.59
2022-08-02T08:02:00.804Z,99786.22
2022-08-02T08:04:33.346Z,99786.19
2022-08-02T08:07:03.065Z,99777.75
2022-08-02T08:09:37.801Z,99773.38
2022-08-02T08:12:21.573Z,99783.47
2022-08-02T08:15:02.453Z,99781.59
2022-08-02T08:17:39.323Z,99787.41
2022-08-02T08:20:20.152Z,99775.16
2022-08-02T08:22:54.200Z,99778.25
2022-08-02T08:25:27.384Z,99773.34
2022-08-02T08:28:00.669Z,99773.63
2022-08-02T08:30:53.944Z,99768.31
2022-08-02T08:33:28.123Z,99773.06
2022-08-02T08:36:02.848Z,99778.47
2022-08-02T08:38:34.028Z,99758.78
2022-08-02T08:41:08.388Z,99775.34
2022-08-02T08:43:43.276Z,99771.03
2022-08-02T08:46:24.647Z,99764.47
2022-08-02T08:49:03.862Z,99762.59
2022-08-02T08:51:46.517Z,99760.94
2022-08-02T08:54:50.694Z,99753.00
2022-08-02T08:57:25.747Z,99749.53
2022-08-02T09:00:14.733Z,99755.16
2022-08-02T09:02:50.866Z,99763.31
2022-08-02T09:05:25.627Z,99755.50
2022-08-02T09:07:59.789Z,99753.03
2022-08-02T09:10:50.591Z,99748.50
2022-08-02T09:13:37.897Z,99746.94
2022-08-02T09:16:34.370Z,99747.16
2022-08-02T09:19:38.969Z,99747.38
2022-08-02T09:22:19.874Z,99757.69
2022-08-02T09:25:01.221Z,99754.34
2022-08-02T09:27:39.801Z,99748.56
2022-08-02T09:30:23.744Z,99745.72
2022-08-02T09:32:59.967Z,99740.81
2022-08-02T09:36:06.161Z,99733.09
2022-08-02T09:39:03.393Z,99741.41
2022-08-02T09:41:39.303Z,99734.97
2022-08-02T09:47:19.570Z,99756.19
2022-08-02T09:50:16.185Z,99749.13
2022-08-02T09:52:45.264Z,99747.13
2022-08-02T09:55:15.444Z,99747.38
2022-08-02T09:57:51.015Z,99746.19
2022-08-02T10:00:51.589Z,99738.25
2022-08-02T10:06:15.285Z,99733.53
2022-08-02T10:08:51.210Z,99728.22
2022-08-02T10:11:27.287Z,99731.28
2022-08-02T10:14:00.665Z,99725.50
2022-08-02T10:16:29.936Z,99725.28
2022-08-02T10:18:57.863Z,99726.44
2022-08-02T10:21:43.746Z,99715.28
2022-08-02T10:24:35.396Z,99714.19
2022-08-02T10:27:15.170Z,99716.75
2022-08-02T10:29:57.640Z,99704.81
2022-08-02T10:32:40.087Z,99709.91
2022-08-02T10:35:25.959Z,99711.03
2022-08-02T10:38:24.721Z,99696.97
2022-08-02T10:41:58.666Z,99694.25
2022-08-02T10:44:42.166Z,99697.66
2022-08-02T10:47:27.915Z,99706.88
2022-08-02T10:50:09.155Z,99697.28
2022-08-02T10:52:43.335Z,99696.13
2022-08-02T10:55:47.516Z,99699.44
2022-08-02T10:58:26.407Z,99693.88
2022-08-02T11:01:08.218Z,99702.72
2022-08-02T11:03:48.066Z,99704.63
2022-08-02T11:06:25.636Z,99693.75
2022-08-02T11:09:33.583Z,99692.06
2022-08-02T11:12:10.247Z,99684.38
2022-08-02T11:14:41.630Z,99688.38
2022-08-02T11:17:18.398Z,99687.56
2022-08-02T11:20:24.261Z,99678.88
2022-08-02T11:23:44.398Z,99683.69
2022-08-02T11:26:53.130Z,99671.44
2022-08-02T11:29:32.480Z,99661.47
2022-08-02T11:32:16.265Z,99664.72
2022-08-02T11:34:49.815Z,99659.88
2022-08-02T11:37:36.767Z,99655.06
2022-08-02T11:40:20.271Z,99652.84
2022-08-02T11:42:51.779Z,99654.56
2022-08-02T11:45:34.695Z,99657.66
2022-08-02T11:48:10.962Z,99658.06
2022-08-02T11:50:44.737Z,99662.16
2022-08-02T11:53:17.234Z,99652.72
2022-08-02T11:55:56.888Z,99658.81
2022-08-02T11:58:30.182Z,99650.63
2022-08-02T12:01:05.013Z,99653.88
2022-08-02T12:03:46.174Z,99646.25
2022-08-02T12:06:19.073Z,99637.72
2022-08-02T12:08:58.602Z,99643.03
2022-08-02T12:11:48.611Z,99642.97
2022-08-02T12:14:30.812Z,99634.56
2022-08-02T12:17:07.398Z,99630.97
2022-08-02T12:19:41.964Z,99642.22
2022-08-02T12:22:17.213Z,99637.66
2022-08-02T12:24:53.091Z,99636.56
2022-08-02T12:27:41.709Z,99641.72
2022-08-02T12:30:13.570Z,99626.97
2022-08-02T12:32:47.471Z,99626.03
2022-08-02T12:35:33.336Z,99627.13
2022-08-02T12:38:13.173Z,99624.72
2022-08-02T12:40:46.278Z,99630.59
2022-08-02T12:43:24.064Z,99625.34
2022-08-02T12:46:08.305Z,99618.28
2022-08-02T12:48:52.098Z,99615.97
2022-08-02T12:51:59.049Z,99616.84
2022-08-02T12:54:39.271Z,99605.97
2022-08-02T12:57:21.219Z,99614.97
2022-08-02T12:59:57.696Z,99603.63
2022-08-02T13:02:27.437Z,99601.72
2022-08-02T13:05:12.352Z,99598.44
2022-08-02T13:07:52.487Z,99598.16
2022-08-02T13:10:25.082Z,99599.31
2022-08-02T13:13:05.738Z,99593.25
2022-08-02T13:15:48.956Z,99587.59
2022-08-02T13:18:22.599Z,99593.94
2022-08-02T13:20:53.105Z,99581.59
2022-08-02T13:23:50.939Z,99594.25
2022-08-02T13:26:19.571Z,99587.66
2022-08-02T13:28:59.207Z,99598.41
2022-08-02T13:31:36.657Z,99589.78
2022-08-02T13:34:17.072Z,99589.66
2022-08-02T13:36:58.339Z,99585.88
2022-08-02T13:40:06.038Z,99582.94
2022-08-02T13:42:43.752Z,99575.50
2022-08-02T13:45:21.914Z,99576.19
2022-08-02T13:48:05.464Z,99566.81
2022-08-02T13:50:56.586Z,99561.25
2022-08-02T13:53:24.943Z,99558.72
2022-08-02T13:55:56.255Z,99556.53
2022-08-02T13:58:41.094Z,99559.31
2022-08-02T14:01:10.418Z,99563.94
2022-08-02T14:04:05.944Z,99555.72
2022-08-02T14:07:00.861Z,99542.31
2022-08-02T14:09:33.615Z,99552.81
2022-08-02T14:12:04.396Z,99550.25
2022-08-02T14:14:50.060Z,99550.84
2022-08-02T14:17:21.315Z,99536.63
2022-08-02T14:20:22.979Z,99542.84
2022-08-02T14:23:03.929Z,99542.19
2022-08-02T14:25:56.366Z,99541.06
2022-08-02T14:28:34.167Z,99529.13
2022-08-02T14:34:07.157Z,99541.34
2022-08-02T14:36:53.300Z,99525.63
2022-08-02T14:39:59.999Z,99553.78
2022-08-02T14:42:34.931Z,99533.94
2022-08-02T14:45:21.484Z,99519.00
2022-08-02T14:47:51.123Z,99539.44
2022-08-02T14:50:46.449Z,99531.47
2022-08-02T14:53:22.741Z,99535.50
2022-08-02T14:56:17.264Z,99536.81
2022-08-02T14:59:24.200Z,99514.78
2022-08-02T15:02:09.566Z,99526.41
2022-08-02T15:05:27.046Z,99530.41
2022-08-02T15:08:17.306Z,99517.47
2022-08-02T15:11:02.723Z,99504.25
2022-08-02T15:13:41.003Z,99527.25
2022-08-02T15:20:05.749Z,99498.72
2022-08-02T15:23:19.165Z,99501.34
2022-08-02T15:26:19.416Z,99494.69
2022-08-02T15:28:57.417Z,99503.53
2022-08-02T15:31:33.197Z,99497.81
2022-08-02T15:34:20.922Z,99507.13
2022-08-02T15:37:14.506Z,99500.84
2022-08-02T15:40:43.723Z,99500.56
2022-08-02T15:47:50.363Z,99499.19
2022-08-02T15:50:51.567Z,99496.00
2022-08-02T15:53:21.684Z,99496.31
2022-08-02T15:56:57.826Z,99499.78
2022-08-02T15:59:33.965Z,99502.69
2022-08-02T16:02:06.399Z,99506.69
2022-08-02T16:04:43.043Z,99499.66
2022-08-02T16:07:12.528Z,99497.53
2022-08-02T16:09:46.171Z,99499.75
2022-08-02T16:12:32.295Z,99497.31
2022-08-02T16:15:12.469Z,99492.41
2022-08-02T16:17:49.268Z,99495.78
2022-08-02T16:20:35.788Z,99491.59
2022-08-02T16:23:08.639Z,99489.13
2022-08-02T16:25:41.953Z,99502.19
2022-08-02T16:28:20.189Z,99495.41
2022-08-02T16:31:11.066Z,99492.91
2022-08-02T16:33:44.648Z,99496.91
2022-08-02T16:36:57.623Z,99484.38
2022-08-02T16:39:26.580Z,99488.88
2022-08-02T16:42:00.092Z,99494.84
2022-08-02T16:44:31.258Z,99479.84
2022-08-02T16:47:09.468Z,99476.44
2022-08-02T16:53:36.256Z,99476.75
2022-08-02T16:56:13.643Z,99475.28
2022-08-02T16:58:47.893Z,99478.16
2022-08-02T17:02:10.921Z,99471.38
2022-08-02T17:05:03.330Z,99478.16
2022-08-02T17:08:15.237Z,99476.25
2022-08-02T17:10:33.275Z,99479.19
2022-08-02T17:13:11.414Z,99476.50
2022-08-02T17:16:17.414Z,99480.38
2022-08-02T17:18:55.560Z,99482.53
2022-08-02T17:21:53.041Z,99478.81
2022-08-02T17:24:35.424Z,99477.16
2022-08-02T17:27:12.129Z,99477.31
2022-08-02T17:30:01.312Z,99479.06
2022-08-02T17:32:39.343Z,99479.94
2022-08-02T17:35:19.872Z,99481.50
2022-08-02T17:37:54.392Z,99477.06
2022-08-02T17:40:40.169Z,99478.69
2022-08-02T17:43:16.671Z,99473.81
2022-08-02T17:47:32.592Z,99480.50
2022-08-02T17:50:21.427Z,99485.66
2022-08-02T17:53:07.894Z,99486.44
2022-08-02T17:55:50.917Z,99479.94
2022-08-02T17:58:24.562Z,99487.72
2022-08-02T18:01:23.614Z,99491.09
2022-08-02T18:04:01.237Z,99485.84
2022-08-02T18:06:52.806Z,99479.34
2022-08-02T18:09:35.909Z,99484.59
2022-08-02T18:12:14.236Z,99492.31
2022-08-02T18:14:50.156Z,99488.94
2022-08-02T18:17:32.003Z,99481.59
2022-08-02T18:20:11.383Z,99490.13
2022-08-02T18:22:58.267Z,99491.28
2022-08-02T18:25:37.867Z,99495.84
2022-08-02T18:28:31.305Z,99495.09
2022-08-02T18:31:22.688Z,99483.09
2022-08-02T18:33:56.938Z,99491.16
2022-08-02T18:36:47.452Z,99486.47
2022-08-02T18:39:26.361Z,99485.75
2022-08-02T18:42:12.689Z,99485.38
2022-08-02T18:45:00.241Z,99483.16
2022-08-02T18:47:35.537Z,99484.97
2022-08-02T18:50:12.696Z,99486.47
2022-08-02T18:52:47.513Z,99485.03
2022-08-02T18:56:00.075Z,99498.31
2022-08-02T18:58:23.263Z,99489.16
2022-08-02T19:00:52.117Z,99474.47
2022-08-02T19:03:23.356Z,99490.63
2022-08-02T19:05:57.155Z,99476.19
2022-08-02T19:08:32.209Z,99492.81
2022-08-02T19:11:04.111Z,99476.09
2022-08-02T19:13:43.006Z,99480.03
2022-08-02T19:16:21.352Z,99481.09
2022-08-02T19:18:51.922Z,99482.09
2022-08-02T19:22:16.241Z,99484.31
2022-08-02T19:24:28.322Z,99498.13
2022-08-02T19:27:13.875Z,99493.06
2022-08-02T19:29:50.806Z,99492.88
2022-08-02T19:32:39.756Z,99499.78
2022-08-02T19:35:30.918Z,99500.44
2022-08-02T19:38:13.028Z,99494.31
2022-08-02T19:40:45.313Z,99498.84
2022-08-02T19:44:26.322Z,99499.91
2022-08-02T19:46:15.903Z,99505.69
2022-08-02T19:48:47.459Z,99494.84
2022-08-02T19:51:49.760Z,99505.56
2022-08-02T19:57:20.063Z,99504.88
2022-08-02T19:59:48.385Z,99512.16
2022-08-02T20:02:34.944Z,99498.22
2022-08-02T20:05:08.125Z,99511.19
2022-08-02T20:07:56.441Z,99509.50
2022-08-02T20:10:32.479Z,99505.19
2022-08-02T20:13:07.440Z,99507.09
2022-08-02T20:15:56.529Z,99520.69
2022-08-02T20:18:32.654Z,99513.94
2022-08-02T20:21:35.871Z,99515.63
2022-08-02T20:24:02.042Z,99515.03
2022-08-02T20:26:35.779Z,99517.91
2022-08-02T20:29:14.269Z,99511.97
2022-08-02T20:31:45.657Z,99506.06
2022-08-02T20:34:19.113Z,99517.56
2022-08-02T20:36:53.930Z,99509.72
2022-08-02T20:39:22.625Z,99516.84
2022-08-02T20:42:22.558Z,99518.03
2022-08-02T20:45:08.689Z,99517.72
2022-08-02T20:47:40.486Z,99512.38
2022-08-02T20:50:11.253Z,99514.06
2022-08-02T20:52:53.999Z,99524.34
2022-08-02T20:55:32.518Z,99525.41
2022-08-02T20:58:11.778Z,99523.63
2022-08-02T21:00:54.435Z,99526.50
2022-08-02T21:03:23.525Z,99527.34
2022-08-02T21:05:56.107Z,99526.53
2022-08-02T21:08:25.282Z,99524.88
2022-08-02T21:11:09.067Z,99526.97
2022-08-02T21:13:47.018Z,99526.53
2022-08-02T21:16:28.593Z,99525.44
2022-08-02T21:19:02.676Z,99522.72
2022-08-02T21:21:45.089Z,99516.88
2022-08-02T21:24:17.253Z,99517.59
2022-08-02T21:26:48.802Z,99522.28
2022-08-02T21:29:38.504Z,99515.75
2022-08-02T21:32:12.405Z,99514.97
2022-08-02T21:34:40.708Z,99509.06
2022-08-02T21:37:16.769Z,99500.91
2022-08-02T21:39:54.375Z,99507.66
2022-08-02T21:42:30.636Z,99509.13
2022-08-02T21:45:17.173Z,99514.41
2022-08-02T21:47:56.269Z,99520.28
2022-08-02T21:50:25.408Z,99509.72
2022-08-02T21:52:56.812Z,99513.66
2022-08-02T21:56:02.569Z,99520.34
2022-08-02T21:58:20.917Z,99526.03
2022-08-02T22:00:57.075Z,99523.91
2022-08-02T22:03:55.017Z,99529.38
2022-08-02T22:06:25.994Z,99527.84
2022-08-02T22:09:00.212Z,99531.94
2022-08-02T22:11:31.561Z,99531.44
2022-08-02T22:14:11.045Z,99532.88
2022-08-02T22:16:57.722Z,99539.59
2022-08-02T22:19:34.833Z,99541.34
2022-08-02T22:22:06.180Z,99534.44
2022-08-02T22:24:41.626Z,99539.91
2022-08-02T22:27:13.955Z,99541.97
2022-08-02T22:29:47.762Z,99541.03
2022-08-02T22:32:21.851Z,99539.84
2022-08-02T22:34:58.787Z,99543.31
2022-08-02T22:38:16.207Z,99550.22
2022-08-02T22:40:18.463Z,99557.38
2022-08-02T22:42:46.618Z,99561.09
2022-08-02T22:45:23.085Z,99548.44
2022-08-02T22:47:51.000Z,99552.59
2022-08-02T22:50:22.863Z,99552.97
2022-08-02T22:52:55.588Z,99551.47
2022-08-02T22:55:41.266Z,99551.72
2022-08-02T22:58:11.941Z,99551.22
2022-08-02T22:58:49.321Z,99483.75
2022-08-02T22:58:53.720Z,99511.38
2022-08-02T23:00:43.656Z,99552.06
2022-08-02T23:03:15.210Z,99552.94
2022-08-02T23:05:43.285Z,99546.34
2022-08-02T23:08:11.045Z,99557.56
2022-08-02T23:10:42.594Z,99546.66
2022-08-02T23:13:10.672Z,99547.63
2022-08-02T23:15:43.454Z,99549.69
2022-08-02T23:18:25.340Z,99555.59
2022-08-02T23:20:56.798Z,99549.75
2022-08-02T23:23:29.065Z,99549.75
2022-08-02T23:26:07.764Z,99553.69
2022-08-02T23:28:44.251Z,99559.00
2022-08-02T23:31:37.509Z,99556.97
2022-08-02T23:34:06.598Z,99553.22
2022-08-02T23:36:41.536Z,99563.09
2022-08-02T23:39:12.648Z,99567.13
2022-08-02T23:41:41.854Z,99567.31
2022-08-02T23:44:13.944Z,99566.78
2022-08-02T23:46:44.775Z,99563.09
2022-08-02T23:49:21.901Z,99555.78
2022-08-02T23:51:56.082Z,99556.63
2022-08-02T23:54:27.682Z,99560.28
2022-08-02T23:56:57.001Z,99558.88
2022-08-02T23:59:25.706Z,99559.81
